Aikawa, Japan

12:21 PM JST on July 31, 2014 (GMT +0900)
Niigata (RJSN) Elev 13 ft | 37.96 °N, 139.11 °E | Change Station

Current weather conditions updated 21 minutes ago

Partly Cloudy
Partly Cloudy
90 °F
Feels Like 96 °F
N
12
Wind Variable Wind from WNW

Today is forecast to be nearly the same temperature as yesterday.

Today
High -- | Low -- °F
--% Chance of Precip.
Yesterday
High -- | Low -- °F
Precip. -- in
4:48 AM 6:57 PM
Waxing Crescent, 15% visible
Pressure 29.89 in
Visibility 6.2 miles
Clouds Few 4500 ft
Heat Index 96 °F
Dew Point 72 °F
Humidity 55%
Rainfall 0.00 in
Snow Depth Not available.
UV 10 out of 12
Pollen Not available.
Air Quality Not available.
Flu Activity Not available.
METAR RJSN 310300Z 29010KT 9999 FEW045 32/22 Q1012

More Conditions Fewer Conditions

Pressure 29.89 in
Visibility 6.2 miles
Clouds Few 4500 ft
Heat Index 96 °F
Dew Point 72 °F
Humidity 55%
Rainfall 0.00 in
Snow Depth Not available.
UV 10 out of 12
Pollen Not available.
Air Quality Not available.
Flu Activity Not available.
METAR RJSN 310300Z 29010KT 9999 FEW045 32/22 Q1012

More Conditions Fewer Conditions

10-Day Weather Forecast

Almanac

Astronomy

Jul. 31, 2014 Rise Set
Actual Time 4:48 AM JST 6:57 PM JST
Civil Twilight 4:19 AM JST 7:27 PM JST
Nautical Twilight 3:43 AM JST 8:02 PM JST
Astronomical Twilight 3:04 AM JST 8:41 PM JST
Moon 8:36 AM JST 8:56 PM JST
Length of Visible Light 15h 07m
Length of Day
14h 09m
Tomorrow will be 1m 49s shorter.
Waxing Crescent, 15% of the Moon is Illuminated
Jul 30
Waxing Crescent
Aug 3
First Quarter
Aug 10
Full
Aug 17
Last Quarter
Aug 25
New

Yesterday's Extremes

Country Highs Country Lows

Community

WunderPhotos

Upload Photos

1,739,286 photos uploaded!

Nearby

Snow Depth

Not available.

Earthquake Activity

City Distance Mag. Time & Date
No recent earthquake activity has been reported nearby.
Minimum magnitude displayed is 2.5.

Coastal Water Temperatures

Place Temperature
No Stations Reporting

Nearby Weather Stations

There are no personal weather stations in this area.